Time;durP1;ratioP1;P1;durP2;ratioP2;P2;SDS_P1;SDS_P2;PMS_P1;PMS_P2;Temp;Humidity;BMP_temperature;BMP_pressure;BME280_temperature;BME280_humidity;BME280_pressure;Samples;Min_cycle;Max_cycle;Signal;HPM_P1;HPM_P2
2023/05/27 00:02:15;;;;;;;2.40;1.20;;;;;;;17.92;100.00;99740.29;105667;1257;73951;-44
2023/05/27 00:04:43;;;;;;;3.60;1.30;;;;;;;17.97;100.00;99748.73;105385;1256;67779;-46
2023/05/27 00:07:10;;;;;;;2.00;1.10;;;;;;;18.03;100.00;99743.98;105491;1253;71914;-46
2023/05/27 00:09:37;;;;;;;2.40;1.30;;;;;;;18.08;100.00;99746.29;105377;1257;60361;-45
2023/05/27 00:12:05;;;;;;;2.00;1.10;;;;;;;18.12;100.00;99743.71;105347;1254;60637;-45
2023/05/27 00:14:32;;;;;;;5.10;1.40;;;;;;;18.16;100.00;99744.73;105373;1258;72362;-47
2023/05/27 00:17:01;;;;;;;1.40;1.00;;;;;;;18.19;100.00;99745.64;105399;1254;66424;-49
2023/05/27 00:19:30;;;;;;;1.30;1.20;;;;;;;18.22;100.00;99737.19;105552;1256;72665;-47
2023/05/27 00:21:58;;;;;;;3.30;1.10;;;;;;;18.24;100.00;99735.88;105348;1258;60866;-49
2023/05/27 00:24:25;;;;;;;5.00;1.40;;;;;;;18.26;100.00;99736.48;105433;1257;60594;-46
2023/05/27 00:26:52;;;;;;;2.00;0.90;;;;;;;18.28;100.00;99737.40;105337;1258;73719;-48
2023/05/27 00:29:20;;;;;;;4.10;1.00;;;;;;;18.31;100.00;99739.36;105475;1254;66923;-44
2023/05/27 00:31:47;;;;;;;1.40;1.00;;;;;;;18.32;100.00;99738.15;105293;1256;71239;-44
2023/05/27 00:34:15;;;;;;;1.70;1.20;;;;;;;18.34;100.00;99742.03;105267;1257;60585;-46
2023/05/27 00:36:42;;;;;;;1.70;1.30;;;;;;;18.36;100.00;99744.98;105127;1254;60597;-46
2023/05/27 00:39:10;;;;;;;1.80;1.00;;;;;;;18.36;100.00;99746.37;107885;1254;73757;-47
2023/05/27 00:41:37;;;;;;;2.00;1.00;;;;;;;18.37;100.00;99748.06;105338;1259;66959;-48
2023/05/27 00:44:05;;;;;;;1.40;1.00;;;;;;;18.38;100.00;99744.20;105248;1258;71032;-45
2023/05/27 00:46:32;;;;;;;2.60;1.30;;;;;;;18.38;100.00;99743.33;105262;1254;60499;-50
2023/05/27 00:48:59;;;;;;;1.90;1.40;;;;;;;18.36;100.00;99740.75;105356;1260;60723;-47
2023/05/27 00:51:27;;;;;;;1.70;1.30;;;;;;;18.35;100.00;99740.32;105338;1254;72336;-47
2023/05/27 00:53:54;;;;;;;3.30;1.40;;;;;;;18.32;100.00;99741.42;105278;1254;66915;-46
2023/05/27 00:56:22;;;;;;;2.40;1.40;;;;;;;18.28;100.00;99744.66;108949;1254;73025;-47
2023/05/27 00:58:49;;;;;;;2.40;1.20;;;;;;;18.25;100.00;99743.63;109048;1253;58603;-47
2023/05/27 01:01:17;;;;;;;3.90;1.30;;;;;;;18.22;100.00;99741.89;109037;1254;59999;-47
2023/05/27 01:03:45;;;;;;;5.40;1.30;;;;;;;18.18;100.00;99745.29;109203;1253;74135;-47
2023/05/27 01:06:24;;;;;;;3.10;1.10;;;;;;;18.14;100.00;99741.23;108989;1253;66592;-46
2023/05/27 01:09:05;;;;;;;1.60;1.50;;;;;;;18.10;100.00;99739.59;109091;1253;72719;-47
2023/05/27 01:11:56;;;;;;;5.40;1.30;;;;;;;18.04;100.00;99736.92;109010;1254;58818;-49
2023/05/27 01:14:23;;;;;;;2.50;1.20;;;;;;;17.99;100.00;99736.66;109178;1254;60188;-47
2023/05/27 01:16:51;;;;;;;2.70;1.40;;;;;;;17.93;100.00;99733.31;108888;1253;72132;-47
2023/05/27 01:19:30;;;;;;;1.90;1.20;;;;;;;17.87;100.00;99732.14;108998;1256;67133;-47
2023/05/27 01:21:58;;;;;;;2.60;1.70;;;;;;;17.83;100.00;99729.05;108947;1254;71411;-45
2023/05/27 01:24:26;;;;;;;2.40;1.50;;;;;;;17.77;100.00;99728.38;108810;1254;252698;-46
2023/05/27 01:28:09;;;;;;;2.10;1.20;;;;;;;17.72;100.00;99719.86;102445;1292;601642;-47
2023/05/27 01:30:36;;;;;;;3.40;1.50;;;;;;;17.67;100.00;99725.90;104556;1271;59671;-46
2023/05/27 01:33:08;;;;;;;2.30;1.70;;;;;;;17.64;100.00;99725.27;104524;1271;59226;-46
2023/05/27 01:35:46;;;;;;;2.70;1.50;;;;;;;17.59;100.00;99730.47;104484;1266;72773;-49
2023/05/27 01:38:17;;;;;;;2.50;1.80;;;;;;;17.56;100.00;99730.95;108341;1265;67811;-46
2023/05/27 01:40:45;;;;;;;4.20;1.70;;;;;;;17.52;100.00;99734.17;107910;1263;193352;-49
2023/05/27 01:43:13;;;;;;;1.50;1.40;;;;;;;17.46;100.00;99734.76;108369;1266;58195;-48
2023/05/27 01:45:42;;;;;;;3.80;1.70;;;;;;;17.40;100.00;99740.14;107346;1264;59829;-48
2023/05/27 01:48:09;;;;;;;1.60;1.50;;;;;;;17.33;100.00;99735.95;104688;1264;72110;-46
2023/05/27 01:50:38;;;;;;;2.80;1.60;;;;;;;17.27;100.00;99733.72;104816;1266;66604;-49
2023/05/27 01:53:06;;;;;;;3.50;1.30;;;;;;;17.21;100.00;99733.95;104757;1268;72952;-50
2023/05/27 01:55:34;;;;;;;5.40;1.80;;;;;;;17.16;100.00;99736.32;104766;1263;60430;-50
2023/05/27 01:58:01;;;;;;;2.10;2.00;;;;;;;17.12;100.00;99733.78;105613;1268;59731;-50
2023/05/27 02:00:29;;;;;;;4.70;1.40;;;;;;;17.08;100.00;99730.09;104721;1265;72972;-51
2023/05/27 02:02:57;;;;;;;3.80;2.10;;;;;;;17.02;100.00;99729.56;105626;1268;70750;-50
2023/05/27 02:05:24;;;;;;;2.20;1.60;;;;;;;16.97;100.00;99733.61;104693;1266;72893;-51
2023/05/27 02:07:52;;;;;;;2.10;1.50;;;;;;;16.92;100.00;99729.80;104598;1267;62242;-51
2023/05/27 02:10:19;;;;;;;3.50;1.80;;;;;;;16.87;100.00;99730.40;104539;1266;61976;-51
2023/05/27 02:12:50;;;;;;;2.20;1.50;;;;;;;16.83;100.00;99729.25;104820;1266;72202;-51
2023/05/27 02:15:17;;;;;;;5.50;1.70;;;;;;;16.80;100.00;99728.39;104673;1268;66253;-51
2023/05/27 02:17:46;;;;;;;2.00;1.90;;;;;;;16.75;100.00;99729.88;104773;1271;73084;-51
2023/05/27 02:20:15;;;;;;;1.70;1.50;;;;;;;16.70;100.00;99729.30;105361;1268;61371;-51
2023/05/27 02:22:42;;;;;;;2.00;1.90;;;;;;;16.66;100.00;99729.05;104630;1264;59846;-51
2023/05/27 02:25:12;;;;;;;5.50;2.30;;;;;;;16.63;100.00;99734.48;104497;1266;73212;-50
2023/05/27 02:27:41;;;;;;;3.00;1.80;;;;;;;16.61;100.00;99743.86;104588;1267;69280;-51
2023/05/27 02:30:10;;;;;;;2.30;1.20;;;;;;;16.61;100.00;99744.62;104607;1266;72639;-50
2023/05/27 02:32:37;;;;;;;2.30;1.90;;;;;;;16.61;100.00;99743.87;104626;1269;60165;-51
2023/05/27 02:35:05;;;;;;;1.60;1.50;;;;;;;16.64;100.00;99744.44;104818;1271;59623;-51
2023/05/27 02:37:33;;;;;;;2.00;1.90;;;;;;;16.68;100.00;99744.91;104611;1266;71566;-53
2023/05/27 02:40:00;;;;;;;2.10;1.90;;;;;;;16.70;100.00;99745.81;104791;1271;67458;-53
2023/05/27 02:42:28;;;;;;;2.10;1.90;;;;;;;16.71;100.00;99742.83;104389;1266;72234;-52
2023/05/27 02:44:55;;;;;;;1.70;1.40;;;;;;;16.70;100.00;99738.73;105334;1271;60224;-51
2023/05/27 02:47:23;;;;;;;3.20;1.70;;;;;;;16.69;100.00;99742.23;104709;1271;60981;-51
2023/05/27 02:49:50;;;;;;;2.60;2.00;;;;;;;16.65;100.00;99741.79;104565;1270;70927;-52
2023/05/27 02:52:18;;;;;;;2.20;1.80;;;;;;;16.62;100.00;99744.02;104483;1266;67878;-52
2023/05/27 02:54:45;;;;;;;2.00;1.90;;;;;;;16.57;100.00;99741.66;104452;1266;74878;-52
2023/05/27 02:57:12;;;;;;;1.90;1.70;;;;;;;16.53;100.00;99739.05;104367;1271;60879;-52
2023/05/27 02:59:40;;;;;;;1.80;1.70;;;;;;;16.49;100.00;99743.13;104375;1272;60154;-50
2023/05/27 03:02:07;;;;;;;2.20;2.10;;;;;;;16.45;100.00;99745.06;104470;1267;73097;-51
2023/05/27 03:04:34;;;;;;;4.10;2.10;;;;;;;16.42;100.00;99744.04;104234;1271;67900;-49
2023/05/27 03:07:02;;;;;;;1.80;1.70;;;;;;;16.39;100.00;99747.87;104349;1270;73168;-50
2023/05/27 03:09:30;;;;;;;3.10;1.60;;;;;;;16.36;100.00;99743.02;104000;1264;61817;-50
2023/05/27 03:11:57;;;;;;;1.90;1.60;;;;;;;16.35;100.00;99747.77;104015;1271;59996;-50
2023/05/27 03:14:25;;;;;;;4.60;2.20;;;;;;;16.36;100.00;99752.08;104029;1266;72867;-50
2023/05/27 03:16:53;;;;;;;1.80;1.60;;;;;;;16.38;100.00;99757.00;104265;1266;67911;-52
2023/05/27 03:19:20;;;;;;;3.80;2.50;;;;;;;16.39;100.00;99756.94;104371;1271;71970;-50
2023/05/27 03:21:48;;;;;;;2.50;1.70;;;;;;;16.41;100.00;99758.95;104369;1266;59777;-50
2023/05/27 03:24:17;;;;;;;3.30;2.00;;;;;;;16.43;100.00;99756.60;104442;1268;59698;-51
2023/05/27 03:26:45;;;;;;;3.10;2.80;;;;;;;16.45;100.00;99757.55;104780;1266;72422;-52
2023/05/27 03:29:13;;;;;;;4.00;2.40;;;;;;;16.48;100.00;99757.18;104341;1271;66521;-51
2023/05/27 03:31:40;;;;;;;4.10;2.10;;;;;;;16.51;100.00;99760.40;104333;1266;71897;-50
2023/05/27 03:34:12;;;;;;;4.70;1.80;;;;;;;16.52;100.00;99754.15;104305;1271;61035;-51
2023/05/27 03:36:43;;;;;;;2.40;2.20;;;;;;;16.54;100.00;99759.98;105023;1271;60529;-51
2023/05/27 03:39:14;;;;;;;2.40;2.30;;;;;;;16.57;100.00;99755.63;104891;1271;73608;-51
2023/05/27 03:41:45;;;;;;;3.80;2.20;;;;;;;16.61;100.00;99757.69;105350;1270;67396;-49
2023/05/27 03:44:12;;;;;;;2.00;1.80;;;;;;;16.66;100.00;99757.52;104367;1266;71625;-48
2023/05/27 03:46:41;;;;;;;2.30;2.20;;;;;;;16.71;100.00;99759.86;104702;1268;62221;-48
2023/05/27 03:49:08;;;;;;;2.70;1.90;;;;;;;16.77;100.00;99764.10;104447;1262;60305;-48
2023/05/27 03:51:36;;;;;;;4.20;2.00;;;;;;;16.84;100.00;99764.34;104871;1268;73589;-49
2023/05/27 03:54:03;;;;;;;7.60;2.90;;;;;;;16.90;100.00;99762.77;104732;1263;67424;-48
2023/05/27 03:56:31;;;;;;;5.50;2.10;;;;;;;16.98;100.00;99759.27;104721;1267;71655;-50
2023/05/27 03:58:58;;;;;;;2.30;2.20;;;;;;;17.06;100.00;99761.09;104760;1265;59762;-50
2023/05/27 04:01:27;;;;;;;2.70;2.50;;;;;;;17.12;100.00;99767.32;104577;1263;59729;-49
2023/05/27 04:03:55;;;;;;;3.40;3.00;;;;;;;17.15;100.00;99769.42;104413;1266;73433;-49
2023/05/27 04:06:23;;;;;;;2.90;2.60;;;;;;;17.19;100.00;99770.70;108503;1262;65833;-50
2023/05/27 04:08:51;;;;;;;3.00;2.20;;;;;;;17.24;100.00;99775.64;104810;1266;72395;-48
2023/05/27 04:11:19;;;;;;;3.70;2.30;;;;;;;17.30;100.00;99783.17;104554;1263;59903;-49
2023/05/27 04:13:48;;;;;;;4.30;3.30;;;;;;;17.37;100.00;99785.88;104938;1261;60398;-51
2023/05/27 04:16:16;;;;;;;3.50;2.50;;;;;;;17.43;100.00;99789.95;108549;1261;71266;-51
2023/05/27 04:18:48;;;;;;;4.50;3.20;;;;;;;17.48;100.00;99787.58;108499;1260;65714;-51
2023/05/27 04:21:15;;;;;;;2.60;2.10;;;;;;;17.56;100.00;99788.98;104714;1268;71216;-50
2023/05/27 04:23:43;;;;;;;4.10;2.40;;;;;;;17.64;100.00;99791.64;108521;1263;60241;-51
2023/05/27 04:26:12;;;;;;;3.90;3.20;;;;;;;17.73;100.00;99790.77;108510;1262;59128;-52
2023/05/27 04:28:41;;;;;;;2.70;2.50;;;;;;;17.80;100.00;99790.75;106240;1267;72786;-51
2023/05/27 04:31:12;;;;;;;4.50;2.60;;;;;;;17.86;100.00;99792.14;104491;1263;66729;-50
2023/05/27 04:33:44;;;;;;;;;;;;;;;17.90;100.00;99798.85;107022;1265;71975;-50
2023/05/27 04:36:11;;;;;;;3.10;2.90;;;;;;;17.96;100.00;99798.39;104605;1268;59943;-50
2023/05/27 04:38:53;;;;;;;3.70;2.60;;;;;;;18.03;100.00;99794.95;104334;1263;62652;-51
2023/05/27 04:41:21;;;;;;;3.50;3.30;;;;;;;18.11;100.00;99792.55;104512;1270;71903;-51
2023/05/27 04:44:07;;;;;;;3.40;2.80;;;;;;;18.20;100.00;99794.73;104696;1266;64977;-48
2023/05/27 04:46:40;;;;;;;3.40;2.90;;;;;;;18.27;100.00;99796.30;104704;1268;73229;-51
2023/05/27 04:49:08;;;;;;;4.50;3.40;;;;;;;18.34;100.00;99800.89;105434;1268;61003;-50
2023/05/27 04:51:36;;;;;;;6.10;3.00;;;;;;;18.39;100.00;99799.95;104504;1263;60659;-51
2023/05/27 04:54:05;;;;;;;3.90;3.60;;;;;;;18.45;100.00;99798.84;104709;1268;72832;-51
2023/05/27 04:56:33;;;;;;;4.60;3.90;;;;;;;18.53;100.00;99802.23;105351;1262;65139;-50
2023/05/27 04:59:01;;;;;;;4.70;3.90;;;;;;;18.59;100.00;99803.20;105767;1263;73134;-51
2023/05/27 05:01:48;;;;;;;3.40;3.00;;;;;;;18.67;100.00;99807.11;105689;1267;62147;-51
2023/05/27 05:04:22;;;;;;;4.60;4.20;;;;;;;18.76;100.00;99808.92;104870;1263;60199;-51
2023/05/27 05:06:55;;;;;;;3.70;2.80;;;;;;;18.83;100.00;99805.95;104974;1269;72512;-53
2023/05/27 05:09:25;;;;;;;4.30;4.00;;;;;;;18.91;100.00;99808.98;105445;1267;66068;-52
2023/05/27 05:11:53;;;;;;;4.90;3.60;;;;;;;18.96;100.00;99808.19;105688;1268;74883;-52
2023/05/27 05:14:21;;;;;;;7.30;3.90;;;;;;;18.99;100.00;99805.03;104835;1268;60519;-52
2023/05/27 05:16:50;;;;;;;4.50;4.20;;;;;;;19.01;100.00;99804.88;104606;1267;59785;-51
2023/05/27 05:19:18;;;;;;;4.30;4.00;;;;;;;19.05;100.00;99804.36;104434;1263;73662;-53
2023/05/27 05:21:45;;;;;;;8.00;4.00;;;;;;;19.11;100.00;99804.98;104406;1264;68228;-51
2023/05/27 05:24:13;;;;;;;6.30;3.30;;;;;;;19.17;100.00;99808.60;105366;1266;72694;-52
2023/05/27 05:26:41;;;;;;;4.60;4.20;;;;;;;19.24;100.00;99807.50;105051;1267;59750;-51
2023/05/27 05:29:09;;;;;;;5.60;3.90;;;;;;;19.32;100.00;99808.99;104992;1267;60080;-51
2023/05/27 05:31:37;;;;;;;3.90;3.60;;;;;;;19.38;100.00;99810.15;104382;1262;72857;-49
2023/05/27 05:34:05;;;;;;;3.80;3.50;;;;;;;19.41;100.00;99813.35;104344;1268;66264;-51
2023/05/27 05:36:33;;;;;;;3.80;3.00;;;;;;;19.43;100.00;99813.90;104514;1262;72713;-51
2023/05/27 05:39:05;;;;;;;3.70;2.90;;;;;;;19.46;100.00;99815.89;104652;1268;60439;-52
2023/05/27 05:41:33;;;;;;;3.60;3.10;;;;;;;19.48;100.00;99816.05;104790;1266;60442;-51
2023/05/27 05:44:01;;;;;;;4.00;3.80;;;;;;;19.52;100.00;99818.11;104574;1268;73791;-51
2023/05/27 05:46:29;;;;;;;5.30;2.80;;;;;;;19.57;100.00;99821.43;104666;1267;66335;-51
2023/05/27 05:48:57;;;;;;;5.10;2.90;;;;;;;19.65;100.00;99820.33;104979;1263;72670;-52
2023/05/27 05:51:35;;;;;;;4.70;3.50;;;;;;;19.69;100.00;99822.12;105018;1268;60574;-50
2023/05/27 05:54:02;;;;;;;7.20;3.00;;;;;;;19.75;100.00;99826.14;105303;1268;60287;-50
2023/05/27 05:56:31;;;;;;;3.10;2.90;;;;;;;19.83;100.00;99828.59;105102;1264;73664;-50
2023/05/27 05:58:59;;;;;;;4.10;3.80;;;;;;;19.89;100.00;99827.84;104881;1268;66811;-50
2023/05/27 06:01:28;;;;;;;4.90;3.10;;;;;;;19.95;100.00;99827.52;105270;1268;72235;-51
2023/05/27 06:03:56;;;;;;;6.60;2.50;;;;;;;20.00;100.00;99830.55;104392;1269;60435;-52
2023/05/27 06:06:31;;;;;;;7.10;3.50;;;;;;;20.07;100.00;99835.06;105227;1263;60841;-50
2023/05/27 06:09:19;;;;;;;5.60;3.20;;;;;;;20.17;100.00;99839.88;104841;1267;74443;-49
2023/05/27 06:11:47;;;;;;;3.50;3.30;;;;;;;20.25;100.00;99838.95;104705;1268;66199;-51
2023/05/27 06:14:14;;;;;;;4.30;3.80;;;;;;;20.32;100.00;99846.35;104813;1263;72839;-51
2023/05/27 06:16:43;;;;;;;3.40;2.60;;;;;;;20.39;100.00;99847.03;104927;1268;60467;-51
2023/05/27 06:19:12;;;;;;;5.40;2.90;;;;;;;20.48;100.00;99847.73;104323;1263;60883;-52
2023/05/27 06:21:39;;;;;;;3.90;3.10;;;;;;;20.57;100.00;99858.23;104538;1263;71803;-50
2023/05/27 06:24:24;;;;;;;3.20;2.80;;;;;;;20.66;100.00;99861.64;104842;1267;66141;-51
2023/05/27 06:26:58;;;;;;;4.70;3.80;;;;;;;20.73;100.00;99865.38;104209;1262;74881;-51
2023/05/27 06:29:25;;;;;;;5.00;3.40;;;;;;;20.80;100.00;99864.95;104224;1267;60611;-51
2023/05/27 06:31:52;;;;;;;4.40;2.80;;;;;;;20.85;100.00;99868.48;104185;1268;60410;-50
2023/05/27 06:34:21;;;;;;;8.60;4.30;;;;;;;20.92;100.00;99873.90;105268;1268;74221;-48
2023/05/27 06:36:49;;;;;;;7.30;2.70;;;;;;;20.97;100.00;99876.73;104805;1267;70324;-51
2023/05/27 06:39:16;;;;;;;3.50;3.10;;;;;;;21.02;100.00;99880.29;104854;1267;72252;-50
2023/05/27 06:41:44;;;;;;;3.70;3.40;;;;;;;21.04;100.00;99880.61;104592;1267;62141;-49
2023/05/27 06:44:41;;;;;;;3.20;2.90;;;;;;;21.09;100.00;99877.21;104351;1267;60591;-50
2023/05/27 06:47:16;;;;;;;8.30;3.50;;;;;;;21.17;100.00;99885.30;104677;1259;75357;-51
2023/05/27 06:49:44;;;;;;;3.60;2.20;;;;;;;21.25;100.00;99889.23;104959;1259;66162;-51
2023/05/27 06:52:11;;;;;;;4.70;2.40;;;;;;;21.26;100.00;99891.48;104876;1265;74797;-52
2023/05/27 06:55:05;;;;;;;4.30;2.90;;;;;;;21.27;100.00;99900.54;108573;1257;60281;-52
2023/05/27 06:57:51;;;;;;;3.10;2.90;;;;;;;21.25;100.00;99899.42;108731;1261;59340;-51
2023/05/27 07:00:25;;;;;;;2.50;2.40;;;;;;;21.20;100.00;99901.31;108743;1257;75414;-52
2023/05/27 07:03:06;;;;;;;3.50;3.30;;;;;;;21.21;100.00;99898.52;108835;1256;67833;-52
2023/05/27 07:05:34;;;;;;;4.90;3.30;;;;;;;21.25;100.00;99898.11;108801;1257;73197;-52
2023/05/27 07:08:03;;;;;;;2.50;1.90;;;;;;;21.31;100.00;99898.86;108581;1257;60444;-51
2023/05/27 07:10:30;;;;;;;2.60;2.40;;;;;;;21.38;100.00;99900.73;104810;1257;62375;-52
2023/05/27 07:12:57;;;;;;;4.00;3.60;;;;;;;21.50;100.00;99902.43;108742;1256;73321;-52
2023/05/27 07:15:31;;;;;;;4.80;3.80;;;;;;;21.61;100.00;99907.08;108703;1256;65867;-51
2023/05/27 07:17:58;;;;;;;3.80;3.50;;;;;;;21.68;100.00;99905.73;108669;1261;72034;-52
2023/05/27 07:20:26;;;;;;;2.70;2.50;;;;;;;21.73;100.00;99906.45;108771;1258;60139;-52
2023/05/27 07:22:53;;;;;;;4.10;2.90;;;;;;;21.77;100.00;99903.73;108836;1256;60536;-52
2023/05/27 07:25:21;;;;;;;5.10;3.40;;;;;;;21.79;100.00;99900.07;108586;1258;74937;-53
2023/05/27 07:27:49;;;;;;;3.10;2.80;;;;;;;21.81;100.00;99895.13;108748;1257;66942;-52
2023/05/27 07:30:16;;;;;;;3.50;3.20;;;;;;;21.88;100.00;99899.20;108789;1260;71042;-53
2023/05/27 07:32:51;;;;;;;2.90;2.50;;;;;;;21.93;100.00;99901.89;108793;1257;59103;-53
2023/05/27 07:35:19;;;;;;;3.00;2.70;;;;;;;21.98;100.00;99903.64;108644;1257;60103;-53
2023/05/27 07:37:46;;;;;;;2.30;2.00;;;;;;;22.04;100.00;99905.80;108810;1257;73861;-51
2023/05/27 07:40:13;;;;;;;2.60;1.60;;;;;;;22.09;100.00;99906.42;108896;1262;69628;-53
2023/05/27 07:42:41;;;;;;;5.30;2.90;;;;;;;22.16;100.00;99911.30;107376;1260;73171;-51
2023/05/27 07:45:09;;;;;;;6.10;3.40;;;;;;;22.22;100.00;99910.54;105243;1263;60501;-50
2023/05/27 07:47:37;;;;;;;3.30;2.50;;;;;;;22.26;100.00;99907.02;105538;1263;60354;-51
2023/05/27 07:50:05;;;;;;;2.60;2.10;;;;;;;22.32;100.00;99908.11;105281;1263;73769;-51
2023/05/27 07:52:35;;;;;;;3.90;2.00;;;;;;;22.40;100.00;99906.12;105358;1260;68319;-51
2023/05/27 07:55:08;;;;;;;6.80;2.40;;;;;;;22.46;100.00;99908.96;105541;1263;72544;-50
2023/05/27 07:57:36;;;;;;;5.20;2.20;;;;;;;22.52;100.00;99907.64;105351;1263;60858;-51
2023/05/27 08:00:06;;;;;;;2.40;2.00;;;;;;;22.56;100.00;99908.89;105372;1264;60641;-51
2023/05/27 08:02:52;;;;;;;1.90;1.70;;;;;;;22.59;100.00;99908.24;105400;1260;73634;-52
2023/05/27 08:05:24;;;;;;;2.40;2.30;;;;;;;22.62;100.00;99903.73;105353;1263;66901;-51
2023/05/27 08:08:19;;;;;;;3.00;1.80;;;;;;;22.66;100.00;99901.55;105146;1263;73303;-51
2023/05/27 08:11:05;;;;;;;2.20;2.00;;;;;;;22.72;100.00;99908.85;105267;1263;60432;-50
2023/05/27 08:13:51;;;;;;;2.60;1.60;;;;;;;22.74;100.00;99909.90;105333;1256;60405;-48
2023/05/27 08:16:35;;;;;;;3.00;2.50;;;;;;;22.79;100.00;99907.86;105553;1258;73750;-51
2023/05/27 08:19:17;;;;;;;5.40;1.90;;;;;;;22.86;100.00;99911.68;105326;1262;66697;-51
2023/05/27 08:21:59;;;;;;;6.40;1.50;;;;;;;22.96;100.00;99913.61;105312;1270;73419;-50
2023/05/27 08:24:51;;;;;;;1.90;1.60;;;;;;;23.06;100.00;99913.62;108882;1263;59862;-52
2023/05/27 08:27:42;;;;;;;1.80;1.50;;;;;;;23.15;100.00;99919.11;108895;1256;60003;-53
2023/05/27 08:30:12;;;;;;;2.90;1.90;;;;;;;23.18;100.00;99916.23;108825;1257;73691;-52
2023/05/27 08:32:51;;;;;;;2.30;1.60;;;;;;;23.19;100.00;99917.60;105182;1263;66920;-49
2023/05/27 08:35:20;;;;;;;1.80;1.70;;;;;;;23.19;100.00;99914.50;105383;1263;73849;-51
2023/05/27 08:37:47;;;;;;;5.80;1.90;;;;;;;23.19;100.00;99910.34;105267;1260;61250;-51
2023/05/27 08:40:16;;;;;;;3.80;1.30;;;;;;;23.21;100.00;99908.77;106411;1254;60399;-52
2023/05/27 08:42:48;;;;;;;2.20;1.40;;;;;;;23.27;100.00;99911.14;105440;1258;72311;-51
2023/05/27 08:45:15;;;;;;;1.90;1.80;;;;;;;23.32;100.00;99905.71;105204;1262;66436;-50
2023/05/27 08:47:43;;;;;;;1.50;1.30;;;;;;;23.36;100.00;99903.30;105166;1256;72443;-49
2023/05/27 08:50:18;;;;;;;4.80;1.40;;;;;;;23.42;100.00;99904.54;105918;1264;60527;-52
2023/05/27 08:52:47;;;;;;;1.80;1.50;;;;;;;23.47;100.00;99900.08;105985;1260;60518;-50
2023/05/27 08:55:19;;;;;;;3.40;1.10;;;;;;;23.54;100.00;99902.66;105415;1256;75778;-52
2023/05/27 08:57:51;;;;;;;4.20;1.20;;;;;;;23.64;100.00;99897.23;105391;1260;66639;-51
2023/05/27 09:00:19;;;;;;;2.40;1.40;;;;;;;23.76;100.00;99897.84;105108;1263;71716;-52
2023/05/27 09:02:47;;;;;;;6.00;1.40;;;;;;;23.89;100.00;99901.83;105089;1264;61562;-51
2023/05/27 09:05:19;;;;;;;2.00;1.20;;;;;;;24.00;100.00;99902.91;105389;1257;60454;-48
2023/05/27 09:07:46;;;;;;;1.60;1.40;;;;;;;24.03;100.00;99898.86;105188;1256;71825;-49
2023/05/27 09:10:14;;;;;;;4.10;1.70;;;;;;;24.03;100.00;99895.66;105287;1269;65626;-50
2023/05/27 09:12:45;;;;;;;5.70;1.60;;;;;;;24.06;100.00;99895.26;105290;1264;72117;-52
2023/05/27 09:15:12;;;;;;;12.00;2.40;;;;;;;24.15;100.00;99895.11;105387;1260;60466;-52
2023/05/27 09:17:44;;;;;;;5.40;1.80;;;;;;;24.25;100.00;99899.63;105407;1257;60313;-51
2023/05/27 09:20:12;;;;;;;4.40;1.90;;;;;;;24.34;100.00;99902.39;105140;1263;75911;-50
2023/05/27 09:22:40;;;;;;;6.90;1.90;;;;;;;24.38;100.00;99903.80;105889;1260;65937;-52
2023/05/27 09:25:08;;;;;;;3.30;1.80;;;;;;;24.36;100.00;99903.98;105241;1262;71357;-52
2023/05/27 09:27:37;;;;;;;5.00;2.90;;;;;;;24.31;100.00;99904.52;105651;1254;60478;-51
2023/05/27 09:30:08;;;;;;;7.40;1.80;;;;;;;24.21;100.00;99901.54;105383;1259;60581;-51
2023/05/27 09:32:36;;;;;;;3.60;1.50;;;;;;;24.06;100.00;99898.03;105311;1254;73493;-51
2023/05/27 09:35:07;;;;;;;4.90;1.90;;;;;;;23.97;100.00;99900.98;105548;1259;66418;-52
2023/05/27 09:37:35;;;;;;;3.40;2.30;;;;;;;23.93;100.00;99892.28;105420;1257;73174;-51
2023/05/27 09:40:10;;;;;;;8.70;2.30;;;;;;;23.89;100.00;99896.77;105208;1260;60819;-51
2023/05/27 09:42:48;;;;;;;2.20;2.10;;;;;;;23.87;100.00;99891.27;106065;1259;60454;-52
2023/05/27 09:45:20;;;;;;;2.30;1.90;;;;;;;23.85;100.00;99887.05;105236;1255;74441;-52
2023/05/27 09:47:49;;;;;;;5.30;1.80;;;;;;;23.84;100.00;99889.85;105502;1261;66263;-53
2023/05/27 09:50:17;;;;;;;5.00;1.90;;;;;;;23.85;100.00;99893.13;105971;1257;72791;-53
2023/05/27 09:52:45;;;;;;;2.70;2.10;;;;;;;23.80;100.00;99884.27;108401;1258;61138;-54
2023/05/27 09:55:31;;;;;;;2.20;1.80;;;;;;;23.74;100.00;99882.64;105301;1254;60614;-52
2023/05/27 09:57:59;;;;;;;2.60;1.90;;;;;;;23.70;100.00;99881.25;105186;1254;73648;-52
2023/05/27 10:00:27;;;;;;;2.20;2.00;;;;;;;23.59;100.00;99872.61;109002;1254;66173;-53
2023/05/27 10:02:57;;;;;;;7.90;2.50;;;;;;;23.53;100.00;99871.20;108921;1254;71465;-51
2023/05/27 10:05:25;;;;;;;6.10;2.90;;;;;;;23.50;100.00;99870.42;109000;1254;58475;-51
2023/05/27 10:07:52;;;;;;;7.70;2.00;;;;;;;23.43;100.00;99864.55;105325;1264;60829;-50
2023/05/27 10:10:40;;;;;;;4.20;2.50;;;;;;;23.30;100.00;99858.86;105406;1259;73950;-51
2023/05/27 10:13:08;;;;;;;4.70;2.40;;;;;;;23.21;100.00;99857.52;105292;1254;65597;-52
2023/05/27 10:15:35;;;;;;;3.30;2.20;;;;;;;23.18;100.00;99849.44;105252;1254;72050;-52
2023/05/27 10:18:07;;;;;;;3.40;2.50;;;;;;;23.18;100.00;99845.80;108862;1254;60627;-54
2023/05/27 10:20:40;;;;;;;6.70;2.50;;;;;;;23.21;100.00;99842.38;108994;1254;60569;-53
2023/05/27 10:23:09;;;;;;;2.10;1.90;;;;;;;23.27;100.00;99833.15;109008;1254;73095;-52
2023/05/27 10:25:45;;;;;;;3.40;2.20;;;;;;;23.35;100.00;99829.40;109061;1254;65718;-53
2023/05/27 10:28:26;;;;;;;3.70;2.00;;;;;;;23.45;100.00;99825.50;109026;1256;72856;-54
2023/05/27 10:31:02;;;;;;;3.40;2.40;;;;;;;23.57;100.00;99824.67;105504;1253;60437;-52
2023/05/27 10:33:30;;;;;;;6.10;2.30;;;;;;;23.70;100.00;99818.55;108949;1254;58855;-53
2023/05/27 10:36:08;;;;;;;2.80;2.50;;;;;;;23.79;100.00;99817.99;108964;1254;73066;-53
2023/05/27 10:38:36;;;;;;;2.40;2.20;;;;;;;23.88;100.00;99814.31;108944;1254;66996;-51
2023/05/27 10:41:05;;;;;;;2.30;2.10;;;;;;;23.98;100.00;99809.63;108888;1254;73067;-51
2023/05/27 10:43:33;;;;;;;2.20;1.70;;;;;;;24.10;100.00;99810.60;108936;1255;58658;-51
2023/05/27 10:46:03;;;;;;;4.60;2.90;;;;;;;24.23;100.00;99815.67;108962;1254;61258;-51
2023/05/27 10:48:30;;;;;;;5.70;2.10;;;;;;;24.33;100.00;99814.08;108956;1254;72108;-53
2023/05/27 10:50:58;;;;;;;1.80;1.60;;;;;;;24.39;100.00;99813.23;107899;1255;65004;-52
2023/05/27 10:53:27;;;;;;;2.30;1.50;;;;;;;24.46;100.00;99818.00;105645;1254;72736;-53
2023/05/27 10:55:59;;;;;;;3.80;1.60;;;;;;;24.49;100.00;99815.69;105338;1254;60430;-52
2023/05/27 10:58:27;;;;;;;1.70;1.60;;;;;;;24.47;100.00;99815.85;105347;1261;60459;-51
2023/05/27 11:00:56;;;;;;;1.80;1.30;;;;;;;24.45;100.00;99811.00;105337;1259;72532;-52
2023/05/27 11:03:27;;;;;;;5.10;1.40;;;;;;;24.48;100.00;99813.23;105914;1259;66225;-53
2023/05/27 11:06:07;;;;;;;1.70;1.20;;;;;;;24.53;100.00;99815.40;105894;1256;72609;-52
2023/05/27 11:08:35;;;;;;;1.70;1.00;;;;;;;24.62;100.00;99814.26;105441;1260;61263;-52
2023/05/27 11:11:07;;;;;;;2.40;1.30;;;;;;;24.71;100.00;99811.34;105269;1270;60574;-52
2023/05/27 11:13:36;;;;;;;1.90;1.20;;;;;;;24.78;100.00;99808.20;105465;1260;73171;-52
2023/05/27 11:16:05;;;;;;;2.10;1.00;;;;;;;24.84;100.00;99803.06;105516;1260;67460;-52
2023/05/27 11:18:46;;;;;;;2.60;1.20;;;;;;;24.90;100.00;99804.93;105671;1260;72211;-51
2023/05/27 11:21:15;;;;;;;2.90;1.00;;;;;;;24.91;100.00;99800.57;105517;1261;60466;-50
2023/05/27 11:23:47;;;;;;;4.20;1.00;;;;;;;24.91;100.00;99802.08;105719;1254;60634;-51
2023/05/27 11:26:17;;;;;;;1.10;1.00;;;;;;;24.88;100.00;99800.47;105518;1260;72874;-49
2023/05/27 11:28:46;;;;;;;2.10;0.90;;;;;;;24.88;100.00;99800.88;105425;1260;69245;-52
2023/05/27 11:31:14;;;;;;;1.00;0.90;;;;;;;24.94;100.00;99798.84;106352;1255;71185;-52
2023/05/27 11:33:46;;;;;;;2.00;1.00;;;;;;;25.00;100.00;99807.02;108962;1254;58607;-53